Time;durP1;ratioP1;P1;durP2;ratioP2;P2;SDS_P1;SDS_P2;PMS_P1;PMS_P2;Temp;Humidity;BMP_temperature;BMP_pressure;BME280_temperature;BME280_humidity;BME280_pressure;Samples;Min_cycle;Max_cycle;Signal;HPM_P1;HPM_P2
2021/12/11 00:03:02;;;;;;;10.98;6.55;;;;;;;2.52;100.00;93876.44;10428484;28;20403;-73
2021/12/11 00:08:05;;;;;;;14.93;8.05;;;;;;;2.55;100.00;93884.72;10429446;28;20033;-78
2021/12/11 00:13:11;;;;;;;9.57;6.18;;;;;;;2.51;100.00;93901.34;10407984;28;20136;-78
2021/12/11 00:18:18;;;;;;;14.68;7.20;;;;;;;2.53;100.00;93908.03;10387961;28;20040;-75
2021/12/11 00:23:51;;;;;;;12.70;5.90;;;;;;;2.17;100.00;93934.00;10406170;28;20030;-74
2021/12/11 00:28:52;;;;;;;11.13;7.13;;;;;;;2.28;100.00;93926.22;10387971;28;20511;-74
2021/12/11 00:33:54;;;;;;;10.25;5.65;;;;;;;2.50;100.00;93931.59;10387847;28;20463;-75
2021/12/11 00:39:04;;;;;;;11.55;5.80;;;;;;;2.54;100.00;93922.91;10387460;28;20443;-74
2021/12/11 00:44:05;;;;;;;13.35;5.75;;;;;;;2.54;100.00;93914.13;10370780;28;20021;-75
2021/12/11 00:49:12;;;;;;;8.45;5.30;;;;;;;2.55;100.00;93913.91;10403247;28;20029;-78
2021/12/11 00:54:12;;;;;;;6.70;4.32;;;;;;;2.60;100.00;93891.94;10402851;28;20033;-75
2021/12/11 00:59:17;;;;;;;9.93;4.07;;;;;;;2.74;100.00;93885.22;10403439;28;20042;-78
2021/12/11 01:04:22;;;;;;;8.98;3.53;;;;;;;2.81;100.00;93882.41;10402925;28;20029;-75
2021/12/11 01:09:29;;;;;;;7.60;4.13;;;;;;;2.89;100.00;93876.69;10386903;28;20029;-76
2021/12/11 01:14:56;;;;;;;11.80;5.83;;;;;;;2.74;100.00;93887.09;10386450;28;20048;-78
2021/12/11 01:20:00;;;;;;;10.40;5.03;;;;;;;2.68;100.00;93866.84;10401212;28;20025;-79
2021/12/11 01:25:07;;;;;;;8.05;4.53;;;;;;;2.79;100.00;93881.88;10385365;28;20026;-75
2021/12/11 01:30:14;;;;;;;8.13;4.97;;;;;;;2.46;100.00;93882.72;10402445;28;20121;-74
2021/12/11 01:35:17;;;;;;;8.30;5.10;;;;;;;2.51;100.00;93877.47;10402390;28;20099;-74
2021/12/11 01:40:21;;;;;;;9.52;4.55;;;;;;;2.53;100.00;93878.06;10369151;28;20128;-74
2021/12/11 01:45:21;;;;;;;8.43;4.75;;;;;;;2.49;100.00;93863.69;10397839;28;20076;-76
2021/12/11 01:50:28;;;;;;;6.28;4.53;;;;;;;2.44;100.00;93860.94;10415468;28;20497;-77
2021/12/11 01:55:37;;;;;;;8.30;4.75;;;;;;;2.25;100.00;93863.88;10407431;28;20122;-74
2021/12/11 02:00:55;;;;;;;9.90;5.25;;;;;;;2.01;100.00;93860.56;10425762;28;20033;-72
2021/12/11 02:05:56;;;;;;;7.90;5.47;;;;;;;1.94;100.00;93868.69;10410683;28;20028;-78
2021/12/11 02:11:09;;;;;;;10.25;6.32;;;;;;;1.84;100.00;93861.38;10443060;28;20064;-74
2021/12/11 02:16:23;;;;;;;14.93;6.22;;;;;;;1.87;100.00;93862.72;10381774;28;20502;-76
2021/12/11 02:21:28;;;;;;;7.93;5.15;;;;;;;1.97;100.00;93870.88;10401542;28;20041;-78
2021/12/11 02:26:31;;;;;;;10.68;5.70;;;;;;;2.01;100.00;93869.34;10383824;28;20431;-77
2021/12/11 02:31:45;;;;;;;7.13;4.55;;;;;;;2.09;100.00;93876.06;10412764;28;20120;-75
2021/12/11 02:36:49;;;;;;;9.50;6.18;;;;;;;2.13;100.00;93868.44;10392580;28;20032;-77
2021/12/11 02:42:05;;;;;;;7.10;3.45;;;;;;;2.27;100.00;93853.03;10423517;28;20033;-73
2021/12/11 02:47:14;;;;;;;6.28;3.63;;;;;;;2.44;100.00;93847.69;10423728;28;20471;-73
2021/12/11 02:52:15;;;;;;;8.13;4.72;;;;;;;2.56;100.00;93833.25;10424338;28;20070;-73
2021/12/11 02:57:32;;;;;;;6.00;4.37;;;;;;;2.67;100.00;93838.72;10442084;28;20078;-77
2021/12/11 03:02:35;;;;;;;4.68;4.05;;;;;;;2.69;100.00;93840.09;10441674;28;20283;-74
2021/12/11 03:07:38;;;;;;;7.70;3.67;;;;;;;2.70;100.00;93833.72;10423219;28;20032;-75
2021/12/11 03:12:40;;;;;;;5.47;3.47;;;;;;;2.72;100.00;93831.63;10423114;28;20056;-76
2021/12/11 03:17:41;;;;;;;7.10;3.72;;;;;;;2.86;100.00;93832.06;10426835;28;20091;-75
2021/12/11 03:22:43;;;;;;;7.10;3.70;;;;;;;2.96;100.00;93825.25;10399000;28;20160;-75
2021/12/11 03:27:44;;;;;;;6.53;3.22;;;;;;;2.95;100.00;93813.06;10382528;28;20038;-74
2021/12/11 03:32:46;;;;;;;6.90;3.97;;;;;;;2.86;100.00;93799.41;10382350;28;20033;-78
2021/12/11 03:37:47;;;;;;;5.97;4.20;;;;;;;2.90;100.00;93796.03;10398796;28;20025;-75
2021/12/11 03:42:50;;;;;;;5.45;3.35;;;;;;;2.87;100.00;93795.69;10399166;28;20549;-76
2021/12/11 03:47:56;;;;;;;4.28;2.90;;;;;;;2.86;100.00;93800.22;10405443;28;20034;-79
2021/12/11 03:52:57;;;;;;;3.95;2.67;;;;;;;2.87;100.00;93801.81;10427607;28;20029;-76
2021/12/11 03:58:00;;;;;;;5.30;2.63;;;;;;;2.87;100.00;93809.75;10413080;28;20078;-74
2021/12/11 04:03:05;;;;;;;5.20;3.20;;;;;;;2.97;100.00;93810.94;10446635;28;20029;-74
2021/12/11 04:08:10;;;;;;;6.93;3.92;;;;;;;3.06;100.00;93830.69;10429517;28;20036;-77
2021/12/11 04:13:11;;;;;;;4.47;2.95;;;;;;;3.13;100.00;93818.03;10427648;28;20045;-78
2021/12/11 04:18:12;;;;;;;2.35;2.03;;;;;;;3.34;100.00;93820.91;10408997;28;20088;-74
2021/12/11 04:23:13;;;;;;;4.05;2.47;;;;;;;3.38;100.00;93806.06;10404858;28;20141;-74
2021/12/11 04:28:17;;;;;;;3.15;1.90;;;;;;;3.34;100.00;93811.06;10388254;28;20061;-73
2021/12/11 04:33:18;;;;;;;4.07;2.67;;;;;;;3.39;100.00;93803.16;10387857;28;20034;-78
2021/12/11 04:38:19;;;;;;;3.72;2.40;;;;;;;3.49;100.00;93786.53;10387334;28;20018;-75
2021/12/11 04:43:24;;;;;;;4.07;2.22;;;;;;;3.52;100.00;93787.88;10405205;28;20030;-74
2021/12/11 04:48:57;;;;;;;4.10;2.70;;;;;;;3.56;100.00;93786.31;10405018;28;20104;-80
2021/12/11 04:59:40;;;;;;;7.20;3.35;;;;;;;3.38;100.00;93792.78;10436600;28;20067;-78
2021/12/11 05:10:24;;;;;;;2.88;2.50;;;;;;;3.06;100.00;93782.91;10445116;28;20566;-75
2021/12/11 05:15:37;;;;;;;4.03;3.08;;;;;;;3.08;100.00;93786.09;10420875;28;20037;-75
2021/12/11 05:20:38;;;;;;;5.18;3.25;;;;;;;3.06;100.00;93786.34;10403671;28;20415;-74
2021/12/11 05:25:39;;;;;;;5.20;2.67;;;;;;;3.22;100.00;93778.56;10403051;28;20029;-75
2021/12/11 05:30:44;;;;;;;7.78;3.55;;;;;;;3.14;100.00;93789.63;10402591;28;20025;-77
2021/12/11 05:35:45;;;;;;;4.00;2.72;;;;;;;3.18;100.00;93775.63;10403428;28;20029;-74
2021/12/11 05:40:51;;;;;;;4.13;2.67;;;;;;;3.29;100.00;93773.03;10368851;28;20495;-75
2021/12/11 05:45:52;;;;;;;3.90;2.75;;;;;;;3.32;100.00;93773.34;10396345;28;20099;-74
2021/12/11 05:50:56;;;;;;;4.32;2.50;;;;;;;3.24;100.00;93777.25;10425798;28;20135;-75
2021/12/11 05:55:59;;;;;;;5.20;3.42;;;;;;;3.39;100.00;93778.44;10409070;28;20028;-74
2021/12/11 06:01:00;;;;;;;4.25;2.92;;;;;;;3.46;100.00;93789.69;10408146;28;20029;-76
2021/12/11 06:06:00;;;;;;;3.53;2.45;;;;;;;3.42;100.00;93780.63;10383611;28;20032;-72
2021/12/11 06:11:03;;;;;;;9.95;4.72;;;;;;;3.52;100.00;93779.91;10400459;28;20125;-77
2021/12/11 06:16:05;;;;;;;6.03;3.75;;;;;;;3.65;100.00;93795.41;10416132;28;20043;-75
2021/12/11 06:21:06;;;;;;;9.23;3.35;;;;;;;3.70;100.00;93799.97;10425352;28;20487;-79
2021/12/11 06:26:07;;;;;;;6.68;3.80;;;;;;;3.78;100.00;93780.09;10444437;28;20105;-74
2021/12/11 06:31:07;;;;;;;3.05;2.42;;;;;;;3.83;100.00;93794.22;10440792;28;20107;-76
2021/12/11 06:36:14;;;;;;;2.80;2.22;;;;;;;3.89;100.00;93790.56;10420971;28;20021;-73
2021/12/11 06:41:17;;;;;;;3.75;2.20;;;;;;;3.95;100.00;93783.44;10406950;28;20083;-74
2021/12/11 06:46:18;;;;;;;8.18;4.47;;;;;;;4.09;100.00;93791.78;10439657;28;20024;-75
2021/12/11 06:51:19;;;;;;;9.27;4.53;;;;;;;4.29;100.00;93788.44;10421904;28;20449;-76
2021/12/11 06:56:21;;;;;;;10.45;2.95;;;;;;;4.48;100.00;93778.16;10425315;28;20021;-75
2021/12/11 07:01:24;;;;;;;9.45;4.72;;;;;;;4.28;100.00;93790.31;10400678;28;20056;-79
2021/12/11 07:06:28;;;;;;;10.63;6.00;;;;;;;4.25;100.00;93801.44;10397968;28;20513;-78
2021/12/11 07:11:29;;;;;;;14.35;7.10;;;;;;;4.35;100.00;93786.59;10358652;28;1191385;-78
2021/12/11 07:16:29;;;;;;;11.55;6.93;;;;;;;4.48;100.00;93775.50;10399109;28;20022;-77
2021/12/11 07:21:30;;;;;;;10.48;5.78;;;;;;;4.52;100.00;93773.94;10406931;28;20024;-79
2021/12/11 07:26:33;;;;;;;10.38;6.45;;;;;;;4.64;100.00;93768.38;10406201;28;20024;-76
2021/12/11 07:31:34;;;;;;;14.40;6.95;;;;;;;4.89;100.00;93759.69;10414606;28;20040;-77
2021/12/11 07:36:35;;;;;;;23.73;8.48;;;;;;;5.05;100.00;93752.56;10389594;28;20047;-79
2021/12/11 07:41:36;;;;;;;18.50;8.05;;;;;;;5.22;100.00;93764.84;10388892;28;20108;-76
2021/12/11 07:46:37;;;;;;;13.23;5.75;;;;;;;5.21;100.00;93761.38;10389203;28;20415;-75
2021/12/11 07:51:39;;;;;;;11.98;6.63;;;;;;;5.50;100.00;93752.91;10389778;28;20025;-76
2021/12/11 07:56:40;;;;;;;14.40;7.43;;;;;;;5.82;100.00;93751.84;10405157;28;20017;-75
2021/12/11 08:01:45;;;;;;;15.07;8.02;;;;;;;6.02;100.00;93751.06;10405270;28;20048;-74
2021/12/11 08:06:46;;;;;;;14.15;6.13;;;;;;;6.14;100.00;93756.91;10389700;28;20565;-74
2021/12/11 08:11:47;;;;;;;16.27;7.43;;;;;;;6.28;100.00;93751.00;10388480;28;20079;-77
2021/12/11 08:16:49;;;;;;;12.70;6.90;;;;;;;6.48;100.00;93756.28;10388473;28;20127;-79
2021/12/11 08:21:53;;;;;;;9.73;5.82;;;;;;;6.71;100.00;93743.41;10404179;28;20025;-74
2021/12/11 08:26:55;;;;;;;11.75;5.38;;;;;;;7.21;100.00;93735.41;10418311;28;20260;-73
2021/12/11 08:31:57;;;;;;;10.45;4.82;;;;;;;7.23;100.00;93743.16;10427806;28;20062;-74
2021/12/11 08:37:00;;;;;;;11.30;4.70;;;;;;;7.26;100.00;93751.41;10448731;28;20487;-75
2021/12/11 08:42:02;;;;;;;14.10;7.32;;;;;;;7.53;100.00;93745.66;10422648;28;20577;-77
2021/12/11 08:47:10;;;;;;;7.40;4.43;;;;;;;7.44;100.00;93733.16;10386112;28;20037;-73
2021/12/11 08:52:19;;;;;;;8.00;3.63;;;;;;;7.82;100.00;93731.50;10405199;28;20040;-73
2021/12/11 08:57:24;;;;;;;3.95;2.80;;;;;;;7.95;100.00;93724.69;10435167;28;20033;-75
2021/12/11 09:02:33;;;;;;;7.57;4.13;;;;;;;8.07;100.00;93715.53;10426493;28;20452;-75
2021/12/11 09:07:41;;;;;;;7.32;3.70;;;;;;;8.25;100.00;93717.47;10426844;28;20112;-78
2021/12/11 09:13:10;;;;;;;3.77;2.10;;;;;;;8.16;100.00;93703.91;10426605;28;20057;-77
2021/12/11 09:18:19;;;;;;;;;;;;;;;7.80;100.00;93690.06;10421034;28;20040;-78
2021/12/11 09:23:43;;;;;;;8.07;3.63;;;;;;;7.85;100.00;93679.31;10417962;28;20448;-78
2021/12/11 09:28:47;;;;;;;6.43;3.55;;;;;;;7.83;100.00;93676.16;10382212;28;20550;-75
2021/12/11 09:33:57;;;;;;;6.65;4.28;;;;;;;7.95;100.00;93668.50;10397292;28;20036;-75
2021/12/11 09:39:05;;;;;;;6.00;2.97;;;;;;;7.99;100.00;93671.44;10398320;28;20049;-75
2021/12/11 09:44:15;;;;;;;8.82;3.05;;;;;;;8.18;100.00;93669.63;10397020;28;20081;-77
2021/12/11 09:49:20;;;;;;;8.38;3.90;;;;;;;8.31;100.00;93668.16;10400496;28;20423;-75
2021/12/11 09:54:23;;;;;;;9.10;4.07;;;;;;;8.48;100.00;93664.25;10383983;28;20068;-76
2021/12/11 09:59:25;;;;;;;8.15;4.88;;;;;;;8.50;100.00;93648.72;10400327;28;20022;-75
2021/12/11 10:04:34;;;;;;;5.88;3.53;;;;;;;8.55;100.00;93646.75;10399995;28;20037;-75
2021/12/11 10:09:38;;;;;;;7.60;3.88;;;;;;;8.64;100.00;93632.72;10414385;28;20474;-73
2021/12/11 10:14:45;;;;;;;11.25;5.10;;;;;;;8.59;100.00;93633.56;10424775;28;20084;-76
2021/12/11 10:19:47;;;;;;;9.80;4.60;;;;;;;8.60;100.00;93642.44;10424258;28;20032;-75
2021/12/11 10:24:49;;;;;;;9.30;4.60;;;;;;;8.83;100.00;93635.41;10408343;28;20747;-76
2021/12/11 10:29:51;;;;;;;10.18;4.60;;;;;;;8.90;100.00;93630.47;10423131;28;20055;-80
2021/12/11 10:34:56;;;;;;;8.32;4.10;;;;;;;8.79;100.00;93629.84;10424387;28;20112;-78
2021/12/11 10:40:02;;;;;;;12.10;4.70;;;;;;;8.78;100.00;93628.25;10439655;28;20028;-75
2021/12/11 10:45:06;;;;;;;7.03;4.00;;;;;;;8.71;100.00;93628.59;10406684;28;20036;-77
2021/12/11 10:50:24;;;;;;;9.55;5.13;;;;;;;8.64;100.00;93601.38;10421187;28;20033;-77
2021/12/11 10:55:31;;;;;;;12.38;4.72;;;;;;;8.60;100.00;93591.53;10387206;28;20026;-77
2021/12/11 11:00:57;;;;;;;7.63;3.67;;;;;;;8.54;100.00;93596.16;10388120;28;20121;-74
2021/12/11 11:05:58;;;;;;;5.60;3.50;;;;;;;8.61;100.00;93593.94;10396971;28;20049;-74
2021/12/11 11:11:04;;;;;;;5.78;2.88;;;;;;;8.64;100.00;93593.34;10421780;28;20052;-80
2021/12/11 11:16:05;;;;;;;7.95;4.45;;;;;;;8.52;100.00;93590.28;10432398;28;20068;-78
2021/12/11 11:21:07;;;;;;;7.95;4.90;;;;;;;8.49;100.00;93580.94;10433464;28;20138;-74
2021/12/11 11:26:13;;;;;;;10.05;4.93;;;;;;;8.43;100.00;93567.88;10405852;28;20029;-74
2021/12/11 11:31:18;;;;;;;10.07;5.15;;;;;;;8.37;100.00;93551.09;10408500;28;20034;-75
2021/12/11 11:36:22;;;;;;;9.68;4.80;;;;;;;8.26;100.00;93545.09;10389560;28;20021;-77
2021/12/11 11:41:30;;;;;;;10.07;5.35;;;;;;;8.05;100.00;93541.84;10394581;28;20033;-74
2021/12/11 11:46:32;;;;;;;13.60;7.15;;;;;;;8.16;100.00;93519.25;10405046;28;20037;-78
2021/12/11 11:51:40;;;;;;;9.93;5.72;;;;;;;8.10;100.00;93533.00;10388478;28;20033;-74
2021/12/11 11:56:43;;;;;;;;;;;;;;;8.02;100.00;93545.94;10389859;28;20190;-75
2021/12/11 12:01:53;;;;;;;11.23;6.57;;;;;;;7.92;100.00;93543.34;10389109;28;19916;-75
2021/12/11 12:06:59;;;;;;;16.17;7.80;;;;;;;7.97;100.00;93535.28;10403871;28;20037;-73
2021/12/11 12:12:02;;;;;;;14.68;6.85;;;;;;;8.08;100.00;93529.78;10403995;28;20179;-75
2021/12/11 12:17:07;;;;;;;18.15;7.85;;;;;;;8.12;100.00;93526.28;10403943;28;20025;-74
2021/12/11 12:22:12;;;;;;;10.77;6.00;;;;;;;8.13;100.00;93529.72;10405666;28;20037;-74
2021/12/11 12:27:17;;;;;;;11.32;6.10;;;;;;;8.06;100.00;93535.44;10404742;28;20033;-75
2021/12/11 12:32:24;;;;;;;10.77;5.22;;;;;;;8.01;100.00;93533.63;10413352;28;20028;-75
2021/12/11 12:37:26;;;;;;;13.63;7.20;;;;;;;8.12;100.00;93534.31;10405007;28;20082;-79
2021/12/11 12:42:37;;;;;;;13.88;7.85;;;;;;;8.18;100.00;93535.03;10386625;28;20028;-77
2021/12/11 12:47:42;;;;;;;17.80;8.15;;;;;;;8.19;100.00;93536.59;10403913;28;20025;-74
2021/12/11 12:52:44;;;;;;;15.43;6.53;;;;;;;8.15;100.00;93523.00;10405005;28;20104;-75
2021/12/11 12:57:46;;;;;;;13.75;6.63;;;;;;;8.26;100.00;93528.22;10386177;28;20611;-76
2021/12/11 13:02:49;;;;;;;10.75;5.55;;;;;;;8.16;100.00;93521.13;10404765;28;20021;-77
2021/12/11 13:07:56;;;;;;;9.98;5.10;;;;;;;8.19;100.00;93520.53;10385686;28;20025;-74
2021/12/11 13:12:58;;;;;;;13.32;5.63;;;;;;;8.23;100.00;93510.06;10386563;28;20042;-73
2021/12/11 13:18:00;;;;;;;10.55;5.57;;;;;;;8.08;100.00;93517.22;10385010;28;20032;-78
2021/12/11 13:23:03;;;;;;;9.77;5.05;;;;;;;8.11;100.00;93516.66;10384636;28;20459;-74
2021/12/11 13:28:04;;;;;;;8.63;4.38;;;;;;;8.12;100.00;93512.88;10395618;28;20507;-75
2021/12/11 13:33:05;;;;;;;7.97;4.38;;;;;;;8.17;100.00;93504.00;10445926;28;20028;-78
2021/12/11 13:38:08;;;;;;;18.80;4.35;;;;;;;8.26;100.00;93507.63;10425812;28;20025;-75
2021/12/11 13:43:10;;;;;;;7.30;3.67;;;;;;;8.24;100.00;93491.03;10424997;28;20397;-75
2021/12/11 13:48:13;;;;;;;13.85;4.80;;;;;;;8.14;100.00;93505.34;10405395;28;20083;-75
2021/12/11 13:53:14;;;;;;;7.32;3.92;;;;;;;8.12;100.00;93507.53;10443436;28;20041;-75
2021/12/11 13:58:14;;;;;;;6.60;3.95;;;;;;;8.17;100.00;93504.78;10424517;28;20039;-78
2021/12/11 14:03:17;;;;;;;7.50;4.15;;;;;;;8.28;100.00;93502.75;10441919;28;20115;-74
2021/12/11 14:08:19;;;;;;;7.55;4.25;;;;;;;8.25;100.00;93508.69;10423904;28;20032;-75
2021/12/11 14:13:20;;;;;;;11.02;4.32;;;;;;;8.17;100.00;93520.03;10423792;28;20045;-75
2021/12/11 14:18:22;;;;;;;9.48;4.72;;;;;;;8.30;100.00;93508.63;10423257;28;20402;-75
2021/12/11 14:23:27;;;;;;;13.43;6.25;;;;;;;8.38;100.00;93507.97;10405480;28;20155;-78
2021/12/11 14:28:28;;;;;;;11.73;5.50;;;;;;;8.37;100.00;93503.72;10398255;28;20056;-74
2021/12/11 14:33:30;;;;;;;10.65;5.22;;;;;;;8.36;100.00;93493.31;10409556;28;20053;-78
2021/12/11 14:38:30;;;;;;;17.15;6.00;;;;;;;8.43;100.00;93496.41;10423935;28;20090;-79
2021/12/11 14:43:32;;;;;;;13.07;5.97;;;;;;;8.39;100.00;93496.19;10402190;28;20076;-79
2021/12/11 14:48:34;;;;;;;11.20;5.95;;;;;;;8.51;100.00;93492.28;10409887;28;20131;-79
2021/12/11 14:53:38;;;;;;;6.38;5.10;;;;;;;8.46;100.00;93485.16;10423249;28;20056;-73
2021/12/11 14:58:49;;;;;;;10.55;5.82;;;;;;;8.45;100.00;93485.44;10400667;28;20032;-77
2021/12/11 15:03:51;;;;;;;6.07;5.38;;;;;;;8.47;100.00;93468.00;10422935;28;20124;-75
2021/12/11 15:08:52;;;;;;;10.45;5.88;;;;;;;8.50;100.00;93480.00;10435208;28;20029;-74
2021/12/11 15:13:56;;;;;;;5.75;4.93;;;;;;;8.53;100.00;93477.53;10423709;28;20059;-75
2021/12/11 15:18:57;;;;;;;6.55;5.20;;;;;;;8.54;100.00;93494.41;10397156;28;20088;-77
2021/12/11 15:24:00;;;;;;;9.75;5.85;;;;;;;8.58;100.00;93487.38;10417143;28;20052;-74
2021/12/11 15:29:01;;;;;;;8.27;4.65;;;;;;;8.54;100.00;93478.34;10421589;28;20056;-80
2021/12/11 15:34:07;;;;;;;8.07;4.40;;;;;;;8.55;100.00;93477.25;10421761;28;20025;-74
2021/12/11 15:39:17;;;;;;;9.10;4.95;;;;;;;8.59;100.00;93466.75;10407601;28;20021;-75
2021/12/11 15:44:27;;;;;;;7.53;5.00;;;;;;;8.55;100.00;93469.22;10447444;28;20533;-76
2021/12/11 15:49:29;;;;;;;8.48;4.47;;;;;;;8.58;100.00;93473.97;10423088;28;20083;-74
2021/12/11 15:54:29;;;;;;;6.10;4.82;;;;;;;8.59;100.00;93472.09;10448638;28;20143;-74
2021/12/11 15:59:34;;;;;;;8.05;5.57;;;;;;;8.58;100.00;93476.66;10413069;28;20482;-77
2021/12/11 16:04:36;;;;;;;8.15;5.95;;;;;;;8.64;100.00;93474.72;10428204;28;20483;-74
2021/12/11 16:09:42;;;;;;;7.15;5.35;;;;;;;8.65;100.00;93465.56;10429933;28;20108;-75
2021/12/11 16:14:43;;;;;;;9.60;5.90;;;;;;;8.66;100.00;93457.25;10402936;28;20158;-74
2021/12/11 16:19:48;;;;;;;9.93;6.53;;;;;;;8.72;100.00;93449.91;10397718;28;20037;-74
2021/12/11 16:24:53;;;;;;;9.45;5.93;;;;;;;8.76;100.00;93434.84;10402728;28;20067;-74
2021/12/11 16:29:53;;;;;;;11.60;5.68;;;;;;;8.80;100.00;93440.44;10444938;28;20041;-76
2021/12/11 16:34:54;;;;;;;11.20;6.28;;;;;;;8.69;100.00;93456.69;10403490;28;20503;-75
2021/12/11 16:39:56;;;;;;;12.18;6.93;;;;;;;8.68;100.00;93438.22;10398299;28;20029;-74
2021/12/11 16:44:56;;;;;;;15.55;9.23;;;;;;;8.65;100.00;93417.38;10428209;28;20060;-79
2021/12/11 16:50:06;;;;;;;12.18;7.13;;;;;;;8.73;100.00;93419.38;10387265;28;20108;-80
2021/12/11 16:55:08;;;;;;;12.07;6.80;;;;;;;8.73;100.00;93403.31;10405933;28;20352;-75
2021/12/11 17:00:14;;;;;;;13.02;6.40;;;;;;;8.83;100.00;93423.75;10430441;28;20554;-77
2021/12/11 17:05:16;;;;;;;9.77;5.07;;;;;;;8.89;100.00;93414.56;10412128;28;20024;-77
2021/12/11 17:10:29;;;;;;;10.43;6.20;;;;;;;8.91;100.00;93412.38;10424251;28;20053;-77
2021/12/11 17:15:30;;;;;;;10.10;5.45;;;;;;;8.86;100.00;93410.59;10370931;28;20491;-77
2021/12/11 17:20:32;;;;;;;10.30;5.55;;;;;;;8.68;100.00;93430.19;10385644;28;20037;-74
2021/12/11 17:25:39;;;;;;;13.15;5.43;;;;;;;8.78;100.00;93426.56;10403716;28;20029;-76
2021/12/11 17:30:55;;;;;;;9.33;5.70;;;;;;;8.84;100.00;93420.78;10409813;28;20123;-76
2021/12/11 17:35:56;;;;;;;11.98;5.95;;;;;;;8.79;100.00;93409.38;10424592;28;20334;-74
2021/12/11 17:40:56;;;;;;;10.05;4.70;;;;;;;8.87;100.00;93401.47;10443440;28;20037;-73
2021/12/11 17:45:57;;;;;;;8.02;4.13;;;;;;;8.91;100.00;93408.91;10419738;28;20083;-80
2021/12/11 17:51:02;;;;;;;12.23;4.93;;;;;;;8.96;100.00;93409.63;10426150;28;20036;-78
2021/12/11 17:56:05;;;;;;;14.07;6.35;;;;;;;8.93;100.00;93402.16;10443278;28;20029;-77
2021/12/11 18:01:53;;;;;;;21.20;7.55;;;;;;;8.96;100.00;93401.56;10424245;28;20029;-75
2021/12/11 18:07:03;;;;;;;13.73;7.03;;;;;;;8.95;100.00;93391.94;10376399;28;20087;-75
2021/12/11 18:12:19;;;;;;;9.13;4.55;;;;;;;8.88;100.00;93386.19;10395343;28;20569;-75
2021/12/11 18:17:25;;;;;;;4.80;2.22;;;;;;;8.80;100.00;93389.53;10447036;28;20113;-74
2021/12/11 18:22:29;;;;;;;4.63;2.38;;;;;;;8.83;100.00;93387.06;10429040;28;20122;-74
2021/12/11 18:27:32;;;;;;;6.72;2.13;;;;;;;8.76;100.00;93380.50;10384985;28;20083;-75
2021/12/11 18:32:36;;;;;;;4.60;2.08;;;;;;;8.69;100.00;93359.44;10424564;28;20044;-79
2021/12/11 18:37:38;;;;;;;5.50;2.20;;;;;;;8.53;100.00;93367.75;10439904;28;20037;-75
2021/12/11 18:42:39;;;;;;;8.52;2.28;;;;;;;8.51;100.00;93361.91;10424886;28;20029;-75
2021/12/11 18:47:42;;;;;;;4.22;1.75;;;;;;;8.52;100.00;93355.44;10412632;28;20057;-74
2021/12/11 18:52:43;;;;;;;3.47;1.98;;;;;;;8.56;100.00;93350.31;10398150;28;20034;-74
2021/12/11 18:57:47;;;;;;;5.07;2.20;;;;;;;8.60;100.00;93348.63;10386206;28;20790;-76
2021/12/11 19:02:50;;;;;;;5.35;2.83;;;;;;;8.66;100.00;93341.28;10397447;28;20528;-81
2021/12/11 19:07:50;;;;;;;3.10;1.75;;;;;;;8.72;100.00;93319.50;10404876;28;20403;-74
2021/12/11 19:12:51;;;;;;;5.13;2.28;;;;;;;8.61;100.00;93320.75;10399011;28;20045;-74
2021/12/11 19:17:53;;;;;;;6.85;2.42;;;;;;;8.59;100.00;93324.81;10409921;28;20085;-74
2021/12/11 19:22:55;;;;;;;1.08;0.90;;;;;;;8.54;100.00;93315.00;10426849;28;20029;-78
2021/12/11 19:27:58;;;;;;;1.65;0.77;;;;;;;8.44;100.00;93299.06;10409682;28;20030;-75
2021/12/11 19:33:09;;;;;;;1.60;0.77;;;;;;;8.42;100.00;93290.56;10408979;28;20179;-75
2021/12/11 19:38:11;;;;;;;3.42;1.23;;;;;;;8.34;100.00;93294.69;10406604;28;20040;-74
2021/12/11 19:43:14;;;;;;;1.40;1.10;;;;;;;8.38;100.00;93287.66;10406824;28;20412;-78
2021/12/11 19:48:17;;;;;;;3.97;1.50;;;;;;;8.35;100.00;93283.69;10408022;28;20040;-77
2021/12/11 19:53:22;;;;;;;3.70;1.85;;;;;;;8.35;100.00;93282.91;10405929;28;20033;-74
2021/12/11 19:58:25;;;;;;;1.63;1.10;;;;;;;8.42;100.00;93280.63;10407893;28;20075;-78
2021/12/11 20:03:29;;;;;;;3.20;1.73;;;;;;;8.39;100.00;93275.88;10471883;22;20436;-78
2021/12/11 20:08:35;;;;;;;3.05;1.77;;;;;;;8.35;100.00;93272.97;10365622;28;20554;-75
2021/12/11 20:13:40;;;;;;;4.35;1.70;;;;;;;8.39;100.00;93270.53;10364039;28;20092;-75
2021/12/11 20:18:48;;;;;;;3.97;1.40;;;;;;;8.28;100.00;93272.56;10366737;28;20454;-73
2021/12/11 20:23:49;;;;;;;4.30;1.50;;;;;;;8.24;100.00;93268.91;10358199;28;20029;-74
2021/12/11 20:28:54;;;;;;;1.25;1.00;;;;;;;8.18;100.00;93257.50;10323071;28;20030;-73
2021/12/11 20:33:55;;;;;;;5.10;1.40;;;;;;;8.24;100.00;93255.50;10355070;28;20026;-75
2021/12/11 20:38:57;;;;;;;2.97;0.70;;;;;;;8.14;100.00;93253.81;10364427;28;20022;-74
2021/12/11 20:44:03;;;;;;;3.15;1.00;;;;;;;8.12;100.00;93256.00;10351429;28;20454;-75
2021/12/11 20:49:06;;;;;;;3.20;1.38;;;;;;;8.03;100.00;93245.16;10322149;28;20587;-75
2021/12/11 20:54:11;;;;;;;3.70;1.40;;;;;;;8.00;100.00;93242.28;10322236;28;20477;-74
2021/12/11 20:59:14;;;;;;;5.63;2.33;;;;;;;7.99;100.00;93230.00;10335352;28;20030;-76
2021/12/11 21:04:26;;;;;;;6.32;1.88;;;;;;;7.92;100.00;93232.25;10321770;28;20058;-79
2021/12/11 21:09:40;;;;;;;8.80;1.90;;;;;;;8.00;100.00;93245.75;10321158;28;20082;-80
2021/12/11 21:14:42;;;;;;;12.85;1.80;;;;;;;7.97;100.00;93250.91;10349038;28;20026;-78
2021/12/11 21:19:50;;;;;;;8.20;2.35;;;;;;;8.04;100.00;93260.13;10361518;28;20163;-74
2021/12/11 21:24:55;;;;;;;4.97;2.60;;;;;;;8.07;100.00;93274.03;10345616;28;20064;-72
2021/12/11 21:29:58;;;;;;;7.13;2.55;;;;;;;8.11;100.00;93275.81;10337338;28;20080;-73
2021/12/11 21:35:04;;;;;;;8.65;3.20;;;;;;;8.10;100.00;93282.25;10320317;28;20026;-75
2021/12/11 21:40:20;;;;;;;7.38;2.83;;;;;;;8.06;100.00;93299.19;10305193;28;20026;-75
2021/12/11 21:45:34;;;;;;;9.18;3.60;;;;;;;8.17;100.00;93319.34;10321663;28;20080;-77
2021/12/11 21:50:50;;;;;;;9.30;2.92;;;;;;;8.00;100.00;93335.94;10320412;28;20500;-75
2021/12/11 21:55:52;;;;;;;2.08;1.13;;;;;;;7.98;100.00;93333.56;10320294;28;20488;-78
2021/12/11 22:01:05;;;;;;;1.50;1.00;;;;;;;7.90;100.00;93334.22;10319999;28;20030;-74
2021/12/11 22:06:14;;;;;;;1.38;0.57;;;;;;;7.85;100.00;93326.25;10320523;28;20082;-75
2021/12/11 22:11:19;;;;;;;6.22;2.95;;;;;;;7.84;100.00;93311.28;10336368;28;20121;-78
2021/12/11 22:16:26;;;;;;;7.85;1.40;;;;;;;7.95;100.00;93318.06;10335374;28;20022;-77
2021/12/11 22:21:29;;;;;;;6.35;0.93;;;;;;;7.87;100.00;93334.78;10319622;28;20035;-76
2021/12/11 22:26:38;;;;;;;1.42;0.95;;;;;;;7.87;100.00;93346.28;10319179;28;20389;-75
2021/12/11 22:31:44;;;;;;;2.85;1.23;;;;;;;8.00;100.00;93350.09;10336025;28;20026;-77
2021/12/11 22:36:46;;;;;;;3.80;1.55;;;;;;;8.01;100.00;93351.69;10335201;28;20035;-79
2021/12/11 22:41:51;;;;;;;4.18;2.00;;;;;;;7.96;100.00;93351.75;10319175;28;20029;-73
2021/12/11 22:46:58;;;;;;;3.75;2.50;;;;;;;8.02;100.00;93345.25;10319073;28;20396;-77
2021/12/11 22:52:03;;;;;;;11.73;3.10;;;;;;;8.08;100.00;93361.22;10328673;28;20034;-76
2021/12/11 22:57:08;;;;;;;2.22;1.00;;;;;;;7.98;100.00;93341.56;10328571;28;20069;-75
2021/12/11 23:02:16;;;;;;;1.38;0.90;;;;;;;7.70;100.00;93308.53;10342895;28;20062;-75
2021/12/11 23:07:21;;;;;;;1.45;0.55;;;;;;;7.60;100.00;93306.81;10344548;28;20488;-76
2021/12/11 23:12:39;;;;;;;2.90;0.85;;;;;;;7.44;100.00;93326.84;10327500;28;20046;-75
2021/12/11 23:18:03;;;;;;;1.98;0.85;;;;;;;7.18;100.00;93338.63;10329259;28;20037;-79
2021/12/11 23:23:10;;;;;;;2.90;1.98;;;;;;;7.33;100.00;93321.63;10326726;28;20136;-75
2021/12/11 23:28:31;;;;;;;10.90;6.20;;;;;;;7.43;100.00;93312.66;10327835;28;20451;-77
2021/12/11 23:33:41;;;;;;;16.98;9.10;;;;;;;7.36;100.00;93312.22;10326599;28;20121;-76
2021/12/11 23:39:00;;;;;;;18.02;9.82;;;;;;;7.35;100.00;93313.31;10325626;28;20030;-76
2021/12/11 23:44:13;;;;;;;29.10;16.77;;;;;;;7.31;100.00;93288.25;10326824;28;20477;-75